TAM9385 SLVR-SBGL
Flight info
| Callsign | TAM9385 |
|---|---|
| Flight time | 2h 34m |
| Altitude | 35000 |
| Route | GAVOS UM411 PALCA UZ87 OBLUG UZ42 VUREP |
| Aircraft | A321/M-SDE3FGHIRWY/LB1 |
Departure
| Time | 2026-04-29 17:03 |
|---|---|
| Airport | Viru Viru International Airport (SLVR) |
Arrival
| Time | 2026-04-29 19:37 |
|---|---|
| Airport | Rio Galeão – Tom Jobim International Airport (SBGL) |
| Time | Latitude | Longitude | Altitude | Speed | Heading |
|---|---|---|---|---|---|
| 2026-04-29 16:51 | -17.64661 | -63.13951 | 1231 ft | 0 kts | 274° |
| 2026-04-29 16:55 | -17.64662 | -63.13956 | 1231 ft | 4 kts | 262° |
| 2026-04-29 16:55 | -17.64698 | -63.13972 | 1231 ft | 10 kts | 160° |
| 2026-04-29 16:56 | -17.64740 | -63.13909 | 1231 ft | 11 kts | 121° |
| 2026-04-29 16:56 | -17.64796 | -63.13852 | 1231 ft | 12 kts | 143° |
| 2026-04-29 16:56 | -17.64864 | -63.13802 | 1231 ft | 12 kts | 139° |
| 2026-04-29 16:56 | -17.64862 | -63.13720 | 1231 ft | 12 kts | 65° |
| 2026-04-29 16:57 | -17.64817 | -63.13641 | 1231 ft | 13 kts | 56° |
| 2026-04-29 16:57 | -17.64805 | -63.13556 | 1231 ft | 13 kts | 134° |
| 2026-04-29 16:57 | -17.64879 | -63.13503 | 1231 ft | 13 kts | 147° |
| 2026-04-29 16:57 | -17.64958 | -63.13449 | 1231 ft | 14 kts | 147° |
| 2026-04-29 16:58 | -17.65041 | -63.13393 | 1231 ft | 15 kts | 147° |
| 2026-04-29 16:58 | -17.65127 | -63.13334 | 1231 ft | 15 kts | 147° |
| 2026-04-29 16:58 | -17.65215 | -63.13274 | 1231 ft | 15 kts | 147° |
| 2026-04-29 16:58 | -17.65308 | -63.13213 | 1231 ft | 16 kts | 147° |
| 2026-04-29 16:59 | -17.65401 | -63.13150 | 1231 ft | 16 kts | 147° |
| 2026-04-29 16:59 | -17.65497 | -63.13086 | 1232 ft | 16 kts | 147° |
| 2026-04-29 16:59 | -17.65595 | -63.13019 | 1232 ft | 17 kts | 147° |
| 2026-04-29 16:59 | -17.65696 | -63.12951 | 1232 ft | 17 kts | 148° |
| 2026-04-29 17:00 | -17.65798 | -63.12881 | 1232 ft | 18 kts | 146° |
| 2026-04-29 17:00 | -17.65875 | -63.12801 | 1232 ft | 12 kts | 99° |
| 2026-04-29 17:00 | -17.65845 | -63.12730 | 1233 ft | 9 kts | 57° |
| 2026-04-29 17:00 | -17.65813 | -63.12687 | 1233 ft | 8 kts | 44° |
| 2026-04-29 17:01 | -17.65750 | -63.12686 | 1240 ft | 0 kts | 330° |
| 2026-04-29 17:01 | -17.65745 | -63.12689 | 1237 ft | 2 kts | 330° |
| 2026-04-29 17:01 | -17.65731 | -63.12696 | 1235 ft | 3 kts | 332° |
| 2026-04-29 17:01 | -17.65728 | -63.12698 | 1238 ft | 0 kts | 332° |
| 2026-04-29 17:02 | -17.65727 | -63.12698 | 1238 ft | 1 kts | 332° |
| 2026-04-29 17:02 | -17.65713 | -63.12707 | 1239 ft | 1 kts | 329° |
| 2026-04-29 17:02 | -17.65486 | -63.12859 | 1234 ft | 79 kts | 328° |
| 2026-04-29 17:02 | -17.64823 | -63.13305 | 1232 ft | 144 kts | 327° |
| 2026-04-29 17:03 | -17.63849 | -63.13964 | 1499 ft | 178 kts | 328° |
| 2026-04-29 17:03 | -17.62785 | -63.14706 | 2210 ft | 190 kts | 324° |
| 2026-04-29 17:03 | -17.61692 | -63.15497 | 2769 ft | 192 kts | 323° |
| 2026-04-29 17:03 | -17.60543 | -63.16301 | 3048 ft | 209 kts | 337° |
| 2026-04-29 17:04 | -17.59025 | -63.16319 | 3238 ft | 236 kts | 19° |
| 2026-04-29 17:04 | -17.57714 | -63.15184 | 3625 ft | 262 kts | 55° |
| 2026-04-29 17:04 | -17.57240 | -63.13323 | 4085 ft | 280 kts | 90° |
| 2026-04-29 17:04 | -17.57809 | -63.11314 | 4541 ft | 292 kts | 120° |
| 2026-04-29 17:05 | -17.59187 | -63.09782 | 5005 ft | 297 kts | 147° |
| 2026-04-29 17:05 | -17.60944 | -63.08629 | 5464 ft | 301 kts | 150° |
| 2026-04-29 17:05 | -17.62764 | -63.07520 | 5930 ft | 304 kts | 151° |
| 2026-04-29 17:05 | -17.64608 | -63.06428 | 6398 ft | 306 kts | 152° |
| 2026-04-29 17:06 | -17.66472 | -63.05331 | 6835 ft | 308 kts | 152° |
| 2026-04-29 17:06 | -17.68343 | -63.04226 | 7282 ft | 310 kts | 152° |
| 2026-04-29 17:06 | -17.70222 | -63.03111 | 7734 ft | 312 kts | 152° |
| 2026-04-29 17:06 | -17.72114 | -63.01972 | 8191 ft | 314 kts | 149° |
| 2026-04-29 17:07 | -17.73727 | -63.00436 | 8646 ft | 317 kts | 123° |
| 2026-04-29 17:07 | -17.74502 | -62.99127 | 8968 ft | 318 kts | 118° |
| 2026-04-29 17:07 | -17.75998 | -62.96429 | 9586 ft | 322 kts | 118° |
| 2026-04-29 17:07 | -17.77127 | -62.94389 | 10048 ft | 324 kts | 118° |
| 2026-04-29 17:08 | -17.78270 | -62.92324 | 10491 ft | 329 kts | 119° |
| 2026-04-29 17:08 | -17.79432 | -62.90229 | 10831 ft | 339 kts | 119° |
| 2026-04-29 17:08 | -17.80647 | -62.88040 | 10943 ft | 356 kts | 119° |
| 2026-04-29 17:08 | -17.81923 | -62.85741 | 11067 ft | 372 kts | 120° |
| 2026-04-29 17:09 | -17.83251 | -62.83352 | 11183 ft | 386 kts | 120° |
| 2026-04-29 17:09 | -17.84629 | -62.80883 | 11407 ft | 396 kts | 120° |
| 2026-04-29 17:09 | -17.86030 | -62.78380 | 11837 ft | 399 kts | 120° |
| 2026-04-29 17:09 | -17.87439 | -62.75858 | 12309 ft | 401 kts | 120° |
| 2026-04-29 17:10 | -17.88855 | -62.73319 | 12783 ft | 404 kts | 120° |
| 2026-04-29 17:10 | -17.90280 | -62.70762 | 13250 ft | 406 kts | 120° |
| 2026-04-29 17:10 | -17.91706 | -62.68196 | 13747 ft | 407 kts | 120° |
| 2026-04-29 17:10 | -17.93087 | -62.65600 | 14187 ft | 409 kts | 115° |
| 2026-04-29 17:11 | -17.94082 | -62.62791 | 14534 ft | 412 kts | 104° |
| 2026-04-29 17:11 | -17.94570 | -62.59822 | 14947 ft | 413 kts | 94° |
| 2026-04-29 17:11 | -17.94737 | -62.56858 | 15426 ft | 413 kts | 91° |
| 2026-04-29 17:11 | -17.94908 | -62.53831 | 15802 ft | 417 kts | 92° |
| 2026-04-29 17:12 | -17.95087 | -62.50782 | 16236 ft | 418 kts | 92° |
| 2026-04-29 17:12 | -17.95273 | -62.47736 | 16703 ft | 420 kts | 92° |
| 2026-04-29 17:12 | -17.95463 | -62.44669 | 17082 ft | 423 kts | 92° |
| 2026-04-29 17:12 | -17.95528 | -62.43623 | 17234 ft | 423 kts | 92° |
| 2026-04-29 17:13 | -17.95845 | -62.38468 | 17971 ft | 427 kts | 92° |
| 2026-04-29 17:13 | -17.96034 | -62.35346 | 18355 ft | 430 kts | 92° |
| 2026-04-29 17:13 | -17.96216 | -62.32199 | 18751 ft | 431 kts | 92° |
| 2026-04-29 17:13 | -17.96394 | -62.29045 | 19079 ft | 434 kts | 92° |
| 2026-04-29 17:14 | -17.96572 | -62.25906 | 19406 ft | 437 kts | 92° |
| 2026-04-29 17:14 | -17.96755 | -62.22722 | 19769 ft | 438 kts | 92° |
| 2026-04-29 17:14 | -17.96943 | -62.19511 | 20039 ft | 442 kts | 92° |
| 2026-04-29 17:14 | -17.97132 | -62.16279 | 20371 ft | 444 kts | 93° |
| 2026-04-29 17:15 | -17.97323 | -62.13024 | 20695 ft | 447 kts | 93° |
| 2026-04-29 17:15 | -17.97518 | -62.09747 | 20970 ft | 450 kts | 93° |
| 2026-04-29 17:15 | -17.97711 | -62.06460 | 21314 ft | 451 kts | 92° |
| 2026-04-29 17:15 | -17.97901 | -62.03163 | 21592 ft | 454 kts | 93° |
| 2026-04-29 17:16 | -17.98027 | -62.00968 | 21783 ft | 456 kts | 93° |
| 2026-04-29 17:16 | -17.98216 | -61.97638 | 22113 ft | 457 kts | 93° |
| 2026-04-29 17:16 | -17.98406 | -61.94296 | 22365 ft | 460 kts | 93° |
| 2026-04-29 17:16 | -17.98599 | -61.90938 | 22677 ft | 461 kts | 93° |
| 2026-04-29 17:17 | -17.98792 | -61.87571 | 22983 ft | 463 kts | 93° |
| 2026-04-29 17:17 | -17.98984 | -61.84184 | 23253 ft | 465 kts | 93° |
| 2026-04-29 17:17 | -17.99261 | -61.80791 | 23535 ft | 466 kts | 99° |
| 2026-04-29 17:17 | -17.99986 | -61.77453 | 23752 ft | 468 kts | 106° |
| 2026-04-29 17:18 | -18.00894 | -61.74156 | 23978 ft | 470 kts | 106° |
| 2026-04-29 17:18 | -18.01800 | -61.70853 | 24235 ft | 471 kts | 106° |
| 2026-04-29 17:18 | -18.02708 | -61.67534 | 24465 ft | 474 kts | 106° |
| 2026-04-29 17:18 | -18.03610 | -61.64238 | 24712 ft | 475 kts | 106° |
| 2026-04-29 17:19 | -18.04522 | -61.60893 | 24946 ft | 476 kts | 106° |
| 2026-04-29 17:19 | -18.05434 | -61.57532 | 25177 ft | 478 kts | 106° |
| 2026-04-29 17:19 | -18.06349 | -61.54166 | 25415 ft | 480 kts | 106° |
| 2026-04-29 17:19 | -18.07263 | -61.50789 | 25655 ft | 481 kts | 106° |
| 2026-04-29 17:20 | -18.08179 | -61.47403 | 25865 ft | 483 kts | 106° |
| 2026-04-29 17:20 | -18.09101 | -61.44007 | 26096 ft | 484 kts | 106° |
| 2026-04-29 17:20 | -18.10033 | -61.40592 | 26328 ft | 486 kts | 106° |
| 2026-04-29 17:20 | -18.10983 | -61.37174 | 26543 ft | 487 kts | 106° |
| 2026-04-29 17:21 | -18.11948 | -61.33750 | 26764 ft | 489 kts | 107° |
| 2026-04-29 17:21 | -18.12920 | -61.30318 | 26977 ft | 491 kts | 107° |
| 2026-04-29 17:21 | -18.13898 | -61.26861 | 27166 ft | 494 kts | 107° |
| 2026-04-29 17:21 | -18.14874 | -61.23392 | 27361 ft | 496 kts | 107° |
| 2026-04-29 17:22 | -18.15848 | -61.19914 | 27576 ft | 498 kts | 107° |
| 2026-04-29 17:22 | -18.16826 | -61.16406 | 27801 ft | 500 kts | 106° |
| 2026-04-29 17:22 | -18.17803 | -61.12887 | 28028 ft | 501 kts | 106° |
| 2026-04-29 17:22 | -18.18780 | -61.09372 | 28285 ft | 502 kts | 106° |
| 2026-04-29 17:23 | -18.19760 | -61.05847 | 28609 ft | 501 kts | 106° |
| 2026-04-29 17:23 | -18.20736 | -61.02337 | 28917 ft | 500 kts | 106° |
| 2026-04-29 17:23 | -18.21719 | -60.98817 | 29240 ft | 500 kts | 106° |
| 2026-04-29 17:23 | -18.22697 | -60.95311 | 29546 ft | 499 kts | 106° |
| 2026-04-29 17:24 | -18.23668 | -60.91809 | 29869 ft | 499 kts | 106° |
| 2026-04-29 17:24 | -18.24638 | -60.88307 | 30146 ft | 499 kts | 106° |
| 2026-04-29 17:24 | -18.25611 | -60.84803 | 30406 ft | 498 kts | 106° |
| 2026-04-29 17:24 | -18.26583 | -60.81298 | 30661 ft | 498 kts | 106° |
| 2026-04-29 17:25 | -18.27541 | -60.77847 | 30909 ft | 498 kts | 106° |
| 2026-04-29 17:25 | -18.28515 | -60.74332 | 31161 ft | 498 kts | 105° |
| 2026-04-29 17:25 | -18.29482 | -60.70833 | 31397 ft | 498 kts | 105° |
| 2026-04-29 17:25 | -18.30447 | -60.67332 | 31637 ft | 498 kts | 105° |
| 2026-04-29 17:26 | -18.31412 | -60.63826 | 31891 ft | 498 kts | 105° |
| 2026-04-29 17:26 | -18.32377 | -60.60330 | 32154 ft | 498 kts | 105° |
| 2026-04-29 17:26 | -18.33343 | -60.56826 | 32359 ft | 499 kts | 105° |
| 2026-04-29 17:26 | -18.34312 | -60.53310 | 32611 ft | 499 kts | 105° |
| 2026-04-29 17:27 | -18.35278 | -60.49808 | 32861 ft | 499 kts | 105° |
| 2026-04-29 17:27 | -18.36246 | -60.46299 | 33101 ft | 498 kts | 105° |
| 2026-04-29 17:27 | -18.37210 | -60.42794 | 33352 ft | 498 kts | 105° |
| 2026-04-29 17:27 | -18.38172 | -60.39287 | 33600 ft | 498 kts | 105° |
| 2026-04-29 17:28 | -18.39123 | -60.35822 | 33838 ft | 498 kts | 105° |
| 2026-04-29 17:28 | -18.40080 | -60.32317 | 34047 ft | 498 kts | 104° |
| 2026-04-29 17:28 | -18.41036 | -60.28824 | 34247 ft | 497 kts | 104° |
| 2026-04-29 17:28 | -18.41995 | -60.25318 | 34451 ft | 497 kts | 104° |
| 2026-04-29 17:29 | -18.42953 | -60.21814 | 34657 ft | 497 kts | 104° |
| 2026-04-29 17:29 | -18.43905 | -60.18324 | 34844 ft | 498 kts | 104° |
| 2026-04-29 17:29 | -18.45511 | -60.12439 | 34909 ft | 499 kts | 104° |
| 2026-04-29 17:30 | -18.47736 | -60.04273 | 34913 ft | 499 kts | 104° |
| 2026-04-29 17:30 | -18.49648 | -59.97238 | 34959 ft | 499 kts | 104° |
| 2026-04-29 17:31 | -18.51556 | -59.90205 | 34966 ft | 499 kts | 104° |
| 2026-04-29 17:31 | -18.53452 | -59.83209 | 34973 ft | 500 kts | 104° |
| 2026-04-29 17:32 | -18.55362 | -59.76158 | 34976 ft | 500 kts | 104° |
| 2026-04-29 17:32 | -18.57274 | -59.69101 | 34963 ft | 501 kts | 104° |
| 2026-04-29 17:33 | -18.59184 | -59.62038 | 34942 ft | 501 kts | 104° |
| 2026-04-29 17:33 | -18.61086 | -59.54978 | 34921 ft | 501 kts | 104° |
| 2026-04-29 17:34 | -18.62988 | -59.47911 | 34929 ft | 501 kts | 104° |
| 2026-04-29 17:34 | -18.64885 | -59.40838 | 34933 ft | 501 kts | 104° |
| 2026-04-29 17:35 | -18.67727 | -59.30229 | 34922 ft | 501 kts | 104° |
| 2026-04-29 17:36 | -18.69617 | -59.23172 | 34928 ft | 501 kts | 104° |
| 2026-04-29 17:36 | -18.71509 | -59.16087 | 34914 ft | 501 kts | 104° |
| 2026-04-29 17:37 | -18.73391 | -59.09019 | 34925 ft | 501 kts | 104° |
| 2026-04-29 17:37 | -18.75271 | -59.01934 | 34927 ft | 501 kts | 104° |
| 2026-04-29 17:38 | -18.77153 | -58.94849 | 34929 ft | 501 kts | 104° |
| 2026-04-29 17:38 | -18.79028 | -58.87779 | 34931 ft | 500 kts | 104° |
| 2026-04-29 17:39 | -18.80902 | -58.80710 | 34924 ft | 500 kts | 104° |
| 2026-04-29 17:39 | -18.82773 | -58.73641 | 34927 ft | 500 kts | 104° |
| 2026-04-29 17:40 | -18.84642 | -58.66571 | 34926 ft | 500 kts | 104° |
| 2026-04-29 17:40 | -18.86517 | -58.59502 | 34928 ft | 500 kts | 104° |
| 2026-04-29 17:41 | -18.88427 | -58.52487 | 34915 ft | 501 kts | 105° |
| 2026-04-29 17:41 | -18.90365 | -58.45412 | 34914 ft | 501 kts | 105° |
| 2026-04-29 17:42 | -18.92288 | -58.38349 | 34917 ft | 500 kts | 104° |
| 2026-04-29 17:42 | -18.94202 | -58.31276 | 34920 ft | 500 kts | 104° |
| 2026-04-29 17:43 | -18.96117 | -58.24205 | 34921 ft | 500 kts | 105° |
| 2026-04-29 17:43 | -18.98051 | -58.17146 | 34923 ft | 500 kts | 105° |
| 2026-04-29 17:44 | -18.99967 | -58.10128 | 34928 ft | 500 kts | 105° |
| 2026-04-29 17:44 | -19.01902 | -58.03024 | 34937 ft | 500 kts | 105° |
| 2026-04-29 17:45 | -19.03807 | -57.96007 | 34946 ft | 500 kts | 105° |
| 2026-04-29 17:45 | -19.05734 | -57.88950 | 34945 ft | 500 kts | 105° |
| 2026-04-29 17:46 | -19.07656 | -57.81894 | 34951 ft | 500 kts | 105° |
| 2026-04-29 17:46 | -19.09745 | -57.74871 | 34962 ft | 500 kts | 108° |
| 2026-04-29 17:47 | -19.12127 | -57.67957 | 34963 ft | 501 kts | 110° |
| 2026-04-29 17:47 | -19.14548 | -57.61037 | 34959 ft | 501 kts | 109° |
| 2026-04-29 17:48 | -19.16862 | -57.54145 | 34954 ft | 500 kts | 108° |
| 2026-04-29 17:48 | -19.19142 | -57.47191 | 34946 ft | 500 kts | 108° |
| 2026-04-29 17:49 | -19.21425 | -57.40258 | 34942 ft | 500 kts | 108° |
| 2026-04-29 17:49 | -19.23726 | -57.33316 | 34926 ft | 500 kts | 108° |
| 2026-04-29 17:50 | -19.26019 | -57.26372 | 34930 ft | 499 kts | 108° |
| 2026-04-29 17:50 | -19.28314 | -57.19434 | 34927 ft | 499 kts | 108° |
| 2026-04-29 17:51 | -19.30608 | -57.12494 | 34923 ft | 499 kts | 108° |
| 2026-04-29 17:51 | -19.32890 | -57.05555 | 34924 ft | 499 kts | 108° |
| 2026-04-29 17:52 | -19.35174 | -56.98613 | 34931 ft | 499 kts | 109° |
| 2026-04-29 17:52 | -19.37624 | -56.91726 | 34930 ft | 499 kts | 111° |
| 2026-04-29 17:53 | -19.40257 | -56.84926 | 34935 ft | 500 kts | 112° |
| 2026-04-29 17:53 | -19.42899 | -56.78115 | 34928 ft | 500 kts | 111° |
| 2026-04-29 17:54 | -19.45476 | -56.71276 | 34928 ft | 500 kts | 111° |
| 2026-04-29 17:54 | -19.48020 | -56.64425 | 34926 ft | 500 kts | 111° |
| 2026-04-29 17:55 | -19.50585 | -56.57570 | 34929 ft | 500 kts | 111° |
| 2026-04-29 17:55 | -19.53155 | -56.50720 | 34924 ft | 500 kts | 111° |
| 2026-04-29 17:56 | -19.55714 | -56.43858 | 34922 ft | 500 kts | 111° |
| 2026-04-29 17:56 | -19.58272 | -56.37003 | 34927 ft | 500 kts | 111° |
| 2026-04-29 17:57 | -19.60808 | -56.30177 | 34930 ft | 500 kts | 111° |
| 2026-04-29 17:57 | -19.63362 | -56.23305 | 34925 ft | 500 kts | 111° |
| 2026-04-29 17:58 | -19.65913 | -56.16434 | 34923 ft | 500 kts | 111° |
| 2026-04-29 17:58 | -19.68034 | -56.10719 | 34926 ft | 500 kts | 111° |
| 2026-04-29 17:59 | -19.70581 | -56.03836 | 34922 ft | 500 kts | 111° |
| 2026-04-29 17:59 | -19.73125 | -55.96966 | 34922 ft | 500 kts | 111° |
| 2026-04-29 18:00 | -19.75669 | -55.90077 | 34927 ft | 500 kts | 110° |
| 2026-04-29 18:00 | -19.78203 | -55.83193 | 34918 ft | 501 kts | 110° |
| 2026-04-29 18:01 | -19.80741 | -55.76299 | 34920 ft | 501 kts | 111° |
| 2026-04-29 18:01 | -19.83281 | -55.69411 | 34924 ft | 501 kts | 110° |
| 2026-04-29 18:02 | -19.85825 | -55.62500 | 34928 ft | 501 kts | 110° |
| 2026-04-29 18:02 | -19.88354 | -55.55599 | 34927 ft | 501 kts | 110° |
| 2026-04-29 18:03 | -19.90885 | -55.48704 | 34925 ft | 501 kts | 110° |
| 2026-04-29 18:03 | -19.93404 | -55.41797 | 34935 ft | 501 kts | 110° |
| 2026-04-29 18:04 | -19.95920 | -55.34890 | 34926 ft | 502 kts | 110° |
| 2026-04-29 18:04 | -19.98446 | -55.27973 | 34931 ft | 502 kts | 110° |
| 2026-04-29 18:05 | -20.00975 | -55.21046 | 34940 ft | 502 kts | 110° |
| 2026-04-29 18:05 | -20.03491 | -55.14121 | 34940 ft | 502 kts | 110° |
| 2026-04-29 18:06 | -20.05994 | -55.07223 | 34932 ft | 502 kts | 110° |
| 2026-04-29 18:06 | -20.08514 | -55.00298 | 34928 ft | 502 kts | 110° |
| 2026-04-29 18:07 | -20.11030 | -54.93373 | 34932 ft | 502 kts | 110° |
| 2026-04-29 18:07 | -20.13538 | -54.86434 | 34935 ft | 503 kts | 110° |
| 2026-04-29 18:08 | -20.16044 | -54.79488 | 34934 ft | 503 kts | 110° |
| 2026-04-29 18:08 | -20.18549 | -54.72535 | 34944 ft | 503 kts | 110° |
| 2026-04-29 18:09 | -20.21047 | -54.65583 | 34951 ft | 503 kts | 110° |
| 2026-04-29 18:09 | -20.23551 | -54.58629 | 34955 ft | 503 kts | 110° |
| 2026-04-29 18:10 | -20.26061 | -54.51671 | 34958 ft | 503 kts | 110° |
| 2026-04-29 18:10 | -20.28567 | -54.44712 | 34956 ft | 503 kts | 110° |
| 2026-04-29 18:11 | -20.31063 | -54.37735 | 34955 ft | 504 kts | 110° |
| 2026-04-29 18:11 | -20.33538 | -54.30757 | 34951 ft | 504 kts | 110° |
| 2026-04-29 18:12 | -20.36024 | -54.23773 | 34955 ft | 504 kts | 110° |
| 2026-04-29 18:12 | -20.38519 | -54.16779 | 34955 ft | 505 kts | 110° |
| 2026-04-29 18:13 | -20.41011 | -54.09785 | 34949 ft | 505 kts | 110° |
| 2026-04-29 18:13 | -20.43505 | -54.02778 | 34954 ft | 505 kts | 110° |
| 2026-04-29 18:14 | -20.46000 | -53.95784 | 34943 ft | 506 kts | 110° |
| 2026-04-29 18:14 | -20.48500 | -53.88766 | 34944 ft | 506 kts | 110° |
| 2026-04-29 18:15 | -20.50984 | -53.81732 | 34945 ft | 507 kts | 110° |
| 2026-04-29 18:15 | -20.53462 | -53.74686 | 34946 ft | 507 kts | 110° |
| 2026-04-29 18:16 | -20.55925 | -53.67692 | 34948 ft | 507 kts | 110° |
| 2026-04-29 18:16 | -20.58415 | -53.60644 | 34949 ft | 507 kts | 110° |
| 2026-04-29 18:17 | -20.60909 | -53.53581 | 34945 ft | 508 kts | 110° |
| 2026-04-29 18:17 | -20.63386 | -53.46519 | 34944 ft | 508 kts | 110° |
| 2026-04-29 18:18 | -20.65870 | -53.39443 | 34949 ft | 508 kts | 110° |
| 2026-04-29 18:18 | -20.68330 | -53.32419 | 34945 ft | 509 kts | 110° |
| 2026-04-29 18:19 | -20.70806 | -53.25341 | 34945 ft | 509 kts | 110° |
| 2026-04-29 18:19 | -20.73282 | -53.18243 | 34944 ft | 509 kts | 110° |
| 2026-04-29 18:20 | -20.75750 | -53.11160 | 34948 ft | 509 kts | 110° |
| 2026-04-29 18:20 | -20.78224 | -53.04063 | 34949 ft | 509 kts | 110° |
| 2026-04-29 18:21 | -20.80688 | -52.96955 | 34948 ft | 509 kts | 110° |
| 2026-04-29 18:21 | -20.83150 | -52.89856 | 34949 ft | 509 kts | 110° |
| 2026-04-29 18:22 | -20.85608 | -52.82762 | 34947 ft | 509 kts | 110° |
| 2026-04-29 18:22 | -20.88059 | -52.75675 | 34952 ft | 508 kts | 110° |
| 2026-04-29 18:23 | -20.90497 | -52.68624 | 34976 ft | 507 kts | 110° |
| 2026-04-29 18:23 | -20.92967 | -52.61466 | 34939 ft | 518 kts | 110° |
| 2026-04-29 18:24 | -20.95473 | -52.54190 | 34936 ft | 523 kts | 110° |
| 2026-04-29 18:24 | -20.97984 | -52.46890 | 34934 ft | 521 kts | 110° |
| 2026-04-29 18:25 | -21.00484 | -52.39598 | 34936 ft | 521 kts | 110° |
| 2026-04-29 18:25 | -21.02971 | -52.32356 | 34939 ft | 521 kts | 110° |
| 2026-04-29 18:26 | -21.05463 | -52.25066 | 34947 ft | 521 kts | 110° |
| 2026-04-29 18:26 | -21.07955 | -52.17763 | 34942 ft | 523 kts | 110° |
| 2026-04-29 18:27 | -21.10451 | -52.10446 | 34941 ft | 523 kts | 110° |
| 2026-04-29 18:27 | -21.12946 | -52.03123 | 34939 ft | 524 kts | 109° |
| 2026-04-29 18:28 | -21.15444 | -51.95779 | 34954 ft | 523 kts | 109° |
| 2026-04-29 18:28 | -21.17928 | -51.88465 | 34959 ft | 523 kts | 109° |
| 2026-04-29 18:29 | -21.20411 | -51.81143 | 34970 ft | 523 kts | 110° |
| 2026-04-29 18:29 | -21.22892 | -51.73809 | 34943 ft | 524 kts | 109° |
| 2026-04-29 18:30 | -21.25370 | -51.66459 | 34945 ft | 525 kts | 109° |
| 2026-04-29 18:30 | -21.27862 | -51.59082 | 34949 ft | 525 kts | 109° |
| 2026-04-29 18:31 | -21.30328 | -51.51765 | 34955 ft | 525 kts | 109° |
| 2026-04-29 18:31 | -21.32807 | -51.44402 | 34962 ft | 525 kts | 109° |
| 2026-04-29 18:32 | -21.35284 | -51.37033 | 34959 ft | 525 kts | 110° |
| 2026-04-29 18:32 | -21.38997 | -51.25970 | 34955 ft | 525 kts | 109° |
| 2026-04-29 18:33 | -21.41461 | -51.18588 | 34957 ft | 525 kts | 109° |
| 2026-04-29 18:33 | -21.43932 | -51.11208 | 34958 ft | 525 kts | 109° |
| 2026-04-29 18:34 | -21.45580 | -51.06271 | 34957 ft | 525 kts | 109° |
| 2026-04-29 18:34 | -21.48847 | -50.96417 | 34967 ft | 525 kts | 109° |
| 2026-04-29 18:35 | -21.51298 | -50.89017 | 34950 ft | 527 kts | 109° |
| 2026-04-29 18:35 | -21.53754 | -50.81585 | 34946 ft | 528 kts | 109° |
| 2026-04-29 18:36 | -21.56208 | -50.74155 | 34952 ft | 528 kts | 109° |
| 2026-04-29 18:36 | -21.58647 | -50.66764 | 34953 ft | 528 kts | 109° |
| 2026-04-29 18:37 | -21.61113 | -50.59271 | 34957 ft | 528 kts | 109° |
| 2026-04-29 18:37 | -21.63538 | -50.51879 | 34964 ft | 528 kts | 109° |
| 2026-04-29 18:38 | -21.65984 | -50.44421 | 34955 ft | 529 kts | 109° |
| 2026-04-29 18:38 | -21.68440 | -50.36944 | 34953 ft | 530 kts | 109° |
| 2026-04-29 18:39 | -21.70907 | -50.29468 | 34954 ft | 530 kts | 109° |
| 2026-04-29 18:39 | -21.72958 | -50.23266 | 34958 ft | 530 kts | 109° |
| 2026-04-29 18:40 | -21.75420 | -50.15786 | 34959 ft | 529 kts | 109° |
| 2026-04-29 18:40 | -21.77855 | -50.08340 | 34965 ft | 530 kts | 109° |
| 2026-04-29 18:41 | -21.82734 | -49.93361 | 34963 ft | 530 kts | 109° |
| 2026-04-29 18:42 | -21.85176 | -49.85853 | 34962 ft | 530 kts | 109° |
| 2026-04-29 18:42 | -21.87607 | -49.78364 | 34965 ft | 530 kts | 109° |
| 2026-04-29 18:43 | -21.90020 | -49.70920 | 34972 ft | 530 kts | 109° |
| 2026-04-29 18:43 | -21.92444 | -49.63416 | 34963 ft | 531 kts | 109° |
| 2026-04-29 18:44 | -21.94875 | -49.55881 | 34956 ft | 532 kts | 109° |
| 2026-04-29 18:44 | -21.97293 | -49.48332 | 34964 ft | 532 kts | 109° |
| 2026-04-29 18:45 | -21.99702 | -49.40787 | 34966 ft | 532 kts | 108° |
| 2026-04-29 18:45 | -22.02116 | -49.33245 | 34967 ft | 531 kts | 109° |
| 2026-04-29 18:46 | -22.04526 | -49.25717 | 34965 ft | 532 kts | 109° |
| 2026-04-29 18:46 | -22.06928 | -49.18165 | 34977 ft | 532 kts | 108° |
| 2026-04-29 18:47 | -22.09487 | -49.10724 | 34983 ft | 532 kts | 117° |
| 2026-04-29 18:47 | -22.13646 | -49.04207 | 34996 ft | 528 kts | 134° |
| 2026-04-29 18:48 | -22.18516 | -48.98275 | 35008 ft | 528 kts | 133° |
| 2026-04-29 18:48 | -22.23360 | -48.92316 | 35009 ft | 528 kts | 133° |
| 2026-04-29 18:49 | -22.28212 | -48.86343 | 35005 ft | 528 kts | 133° |
| 2026-04-29 18:49 | -22.33079 | -48.80389 | 34996 ft | 528 kts | 133° |
| 2026-04-29 18:50 | -22.37937 | -48.74436 | 34987 ft | 529 kts | 134° |
| 2026-04-29 18:50 | -22.42793 | -48.68448 | 34977 ft | 530 kts | 134° |
| 2026-04-29 18:51 | -22.47648 | -48.62446 | 34973 ft | 531 kts | 133° |
| 2026-04-29 18:51 | -22.52513 | -48.56433 | 34979 ft | 531 kts | 133° |
| 2026-04-29 18:52 | -22.57379 | -48.50410 | 34983 ft | 532 kts | 134° |
| 2026-04-29 18:52 | -22.61501 | -48.43741 | 34974 ft | 536 kts | 115° |
| 2026-04-29 18:53 | -22.64076 | -48.36177 | 34981 ft | 537 kts | 109° |
| 2026-04-29 18:53 | -22.66499 | -48.28532 | 34984 ft | 537 kts | 109° |
| 2026-04-29 18:54 | -22.68937 | -48.20888 | 34984 ft | 538 kts | 109° |
| 2026-04-29 18:54 | -22.71371 | -48.13213 | 34976 ft | 539 kts | 109° |
| 2026-04-29 18:55 | -22.73795 | -48.05526 | 34976 ft | 540 kts | 109° |
| 2026-04-29 18:55 | -22.76087 | -47.97824 | 34977 ft | 539 kts | 106° |
| 2026-04-29 18:56 | -22.78800 | -47.90237 | 34983 ft | 539 kts | 114° |
| 2026-04-29 18:56 | -22.81834 | -47.82794 | 34987 ft | 539 kts | 115° |
| 2026-04-29 18:57 | -22.84940 | -47.75389 | 34982 ft | 539 kts | 115° |
| 2026-04-29 18:57 | -22.88034 | -47.67979 | 34987 ft | 539 kts | 114° |
| 2026-04-29 18:58 | -22.91090 | -47.60552 | 34991 ft | 539 kts | 114° |
| 2026-04-29 18:58 | -22.94105 | -47.53173 | 35000 ft | 539 kts | 114° |
| 2026-04-29 18:59 | -22.97149 | -47.45738 | 35005 ft | 540 kts | 115° |
| 2026-04-29 18:59 | -23.00207 | -47.38295 | 35014 ft | 540 kts | 114° |
| 2026-04-29 19:00 | -23.03259 | -47.30850 | 35037 ft | 540 kts | 114° |
| 2026-04-29 19:00 | -23.06307 | -47.23389 | 35048 ft | 540 kts | 114° |
| 2026-04-29 19:01 | -23.09349 | -47.15916 | 35048 ft | 541 kts | 114° |
| 2026-04-29 19:01 | -23.12400 | -47.08437 | 35042 ft | 541 kts | 114° |
| 2026-04-29 19:02 | -23.14937 | -47.02219 | 35039 ft | 541 kts | 114° |
| 2026-04-29 19:02 | -23.18490 | -46.93473 | 35032 ft | 540 kts | 114° |
| 2026-04-29 19:03 | -23.21503 | -46.86039 | 35019 ft | 541 kts | 114° |
| 2026-04-29 19:03 | -23.24537 | -46.78542 | 35033 ft | 542 kts | 114° |
| 2026-04-29 19:04 | -23.27578 | -46.71039 | 35051 ft | 542 kts | 115° |
| 2026-04-29 19:04 | -23.30617 | -46.63517 | 35084 ft | 543 kts | 114° |
| 2026-04-29 19:05 | -23.33649 | -46.55993 | 35121 ft | 543 kts | 114° |
| 2026-04-29 19:05 | -23.36670 | -46.48458 | 35134 ft | 543 kts | 114° |
| 2026-04-29 19:06 | -23.39493 | -46.40839 | 35123 ft | 544 kts | 105° |
| 2026-04-29 19:06 | -23.40538 | -46.32734 | 35102 ft | 540 kts | 86° |
| 2026-04-29 19:07 | -23.40460 | -46.28699 | 35098 ft | 539 kts | 86° |
| 2026-04-29 19:07 | -23.40300 | -46.20489 | 35065 ft | 540 kts | 86° |
| 2026-04-29 19:08 | -23.40157 | -46.12305 | 35057 ft | 540 kts | 86° |
| 2026-04-29 19:08 | -23.40023 | -46.04183 | 35025 ft | 541 kts | 86° |
| 2026-04-29 19:09 | -23.39871 | -45.95999 | 35030 ft | 541 kts | 86° |
| 2026-04-29 19:09 | -23.39705 | -45.87796 | 35062 ft | 540 kts | 86° |
| 2026-04-29 19:10 | -23.39538 | -45.79631 | 35068 ft | 539 kts | 86° |
| 2026-04-29 19:10 | -23.39360 | -45.71461 | 35056 ft | 538 kts | 86° |
| 2026-04-29 19:11 | -23.39185 | -45.63335 | 35050 ft | 537 kts | 86° |
| 2026-04-29 19:11 | -23.39004 | -45.55196 | 35035 ft | 537 kts | 85° |
| 2026-04-29 19:12 | -23.38056 | -45.47221 | 35040 ft | 528 kts | 72° |
| 2026-04-29 19:12 | -23.36384 | -45.39424 | 35045 ft | 528 kts | 72° |
| 2026-04-29 19:13 | -23.34723 | -45.31656 | 35045 ft | 527 kts | 72° |
| 2026-04-29 19:13 | -23.33095 | -45.24017 | 34818 ft | 512 kts | 72° |
| 2026-04-29 19:13 | -23.32291 | -45.20261 | 34383 ft | 507 kts | 72° |
| 2026-04-29 19:14 | -23.31489 | -45.16534 | 33834 ft | 505 kts | 72° |
| 2026-04-29 19:14 | -23.30683 | -45.12814 | 33231 ft | 504 kts | 72° |
| 2026-04-29 19:14 | -23.29874 | -45.09095 | 32542 ft | 505 kts | 73° |
| 2026-04-29 19:14 | -23.29065 | -45.05383 | 31825 ft | 508 kts | 73° |
| 2026-04-29 19:15 | -23.28249 | -45.01630 | 31106 ft | 510 kts | 73° |
| 2026-04-29 19:15 | -23.27434 | -44.97859 | 30447 ft | 512 kts | 74° |
| 2026-04-29 19:15 | -23.26617 | -44.94058 | 29704 ft | 515 kts | 74° |
| 2026-04-29 19:15 | -23.25800 | -44.90261 | 28851 ft | 517 kts | 73° |
| 2026-04-29 19:16 | -23.24982 | -44.86483 | 28297 ft | 512 kts | 73° |
| 2026-04-29 19:16 | -23.24166 | -44.82722 | 27719 ft | 506 kts | 73° |
| 2026-04-29 19:16 | -23.23360 | -44.79020 | 27141 ft | 502 kts | 73° |
| 2026-04-29 19:16 | -23.22560 | -44.75345 | 26592 ft | 497 kts | 73° |
| 2026-04-29 19:17 | -23.21768 | -44.71707 | 26053 ft | 492 kts | 73° |
| 2026-04-29 19:17 | -23.20984 | -44.68115 | 25514 ft | 487 kts | 72° |
| 2026-04-29 19:17 | -23.20203 | -44.64549 | 24989 ft | 483 kts | 72° |
| 2026-04-29 19:17 | -23.19431 | -44.61028 | 24442 ft | 470 kts | 72° |
| 2026-04-29 19:18 | -23.18680 | -44.57602 | 23931 ft | 465 kts | 71° |
| 2026-04-29 19:18 | -23.18084 | -44.55382 | 23593 ft | 459 kts | 65° |
| 2026-04-29 19:18 | -23.16362 | -44.51217 | 22993 ft | 444 kts | 59° |
| 2026-04-29 19:18 | -23.15045 | -44.48253 | 22630 ft | 425 kts | 59° |
| 2026-04-29 19:19 | -23.13800 | -44.45419 | 22175 ft | 413 kts | 59° |
| 2026-04-29 19:19 | -23.12560 | -44.42598 | 21603 ft | 414 kts | 59° |
| 2026-04-29 19:19 | -23.11314 | -44.39766 | 21044 ft | 414 kts | 59° |
| 2026-04-29 19:19 | -23.10072 | -44.36948 | 20501 ft | 414 kts | 59° |
| 2026-04-29 19:20 | -23.08839 | -44.34156 | 19961 ft | 414 kts | 59° |
| 2026-04-29 19:20 | -23.07604 | -44.31351 | 19432 ft | 406 kts | 59° |
| 2026-04-29 19:20 | -23.06419 | -44.28644 | 18924 ft | 386 kts | 59° |
| 2026-04-29 19:20 | -23.05291 | -44.26072 | 18444 ft | 369 kts | 59° |
| 2026-04-29 19:21 | -23.04210 | -44.23614 | 17907 ft | 354 kts | 59° |
| 2026-04-29 19:21 | -23.03170 | -44.21263 | 17524 ft | 336 kts | 59° |
| 2026-04-29 19:21 | -23.02170 | -44.19010 | 17126 ft | 326 kts | 59° |
| 2026-04-29 19:21 | -23.01191 | -44.16814 | 16589 ft | 321 kts | 59° |
| 2026-04-29 19:22 | -23.00535 | -44.15347 | 16218 ft | 319 kts | 60° |
| 2026-04-29 19:22 | -22.99583 | -44.13222 | 15954 ft | 313 kts | 60° |
| 2026-04-29 19:22 | -22.98647 | -44.11123 | 15400 ft | 306 kts | 60° |
| 2026-04-29 19:22 | -22.97721 | -44.09044 | 14836 ft | 305 kts | 60° |
| 2026-04-29 19:23 | -22.96800 | -44.06976 | 14559 ft | 302 kts | 61° |
| 2026-04-29 19:23 | -22.95905 | -44.04954 | 14417 ft | 293 kts | 61° |
| 2026-04-29 19:23 | -22.95029 | -44.02982 | 14173 ft | 290 kts | 61° |
| 2026-04-29 19:23 | -22.94154 | -44.01017 | 13869 ft | 288 kts | 62° |
| 2026-04-29 19:24 | -22.93285 | -43.99064 | 13541 ft | 287 kts | 61° |
| 2026-04-29 19:24 | -22.92408 | -43.97098 | 12942 ft | 294 kts | 62° |
| 2026-04-29 19:24 | -22.91514 | -43.95098 | 12337 ft | 291 kts | 62° |
| 2026-04-29 19:24 | -22.90643 | -43.93142 | 11747 ft | 285 kts | 62° |
| 2026-04-29 19:25 | -22.89777 | -43.91198 | 11179 ft | 290 kts | 62° |
| 2026-04-29 19:25 | -22.88887 | -43.89205 | 10605 ft | 294 kts | 62° |
| 2026-04-29 19:25 | -22.88019 | -43.87256 | 10240 ft | 279 kts | 63° |
| 2026-04-29 19:25 | -22.87202 | -43.85417 | 9923 ft | 262 kts | 63° |
| 2026-04-29 19:26 | -22.86432 | -43.83686 | 9672 ft | 244 kts | 63° |
| 2026-04-29 19:26 | -22.85711 | -43.82066 | 9535 ft | 235 kts | 63° |
| 2026-04-29 19:26 | -22.85009 | -43.80494 | 9418 ft | 234 kts | 63° |
| 2026-04-29 19:26 | -22.84300 | -43.78906 | 9295 ft | 233 kts | 62° |
| 2026-04-29 19:27 | -22.83592 | -43.77326 | 9169 ft | 232 kts | 62° |
| 2026-04-29 19:27 | -22.82885 | -43.75747 | 9043 ft | 232 kts | 63° |
| 2026-04-29 19:27 | -22.82183 | -43.74181 | 8927 ft | 231 kts | 63° |
| 2026-04-29 19:27 | -22.81480 | -43.72614 | 8972 ft | 232 kts | 63° |
| 2026-04-29 19:28 | -22.80909 | -43.70984 | 8790 ft | 230 kts | 74° |
| 2026-04-29 19:28 | -22.80531 | -43.69324 | 8571 ft | 224 kts | 74° |
| 2026-04-29 19:28 | -22.80160 | -43.67715 | 8352 ft | 220 kts | 75° |
| 2026-04-29 19:28 | -22.79783 | -43.66093 | 8107 ft | 219 kts | 75° |
| 2026-04-29 19:29 | -22.79412 | -43.64502 | 7840 ft | 217 kts | 74° |
| 2026-04-29 19:29 | -22.79048 | -43.62936 | 7583 ft | 216 kts | 76° |
| 2026-04-29 19:29 | -22.78683 | -43.61360 | 7322 ft | 216 kts | 75° |
| 2026-04-29 19:29 | -22.78312 | -43.59766 | 7062 ft | 215 kts | 74° |
| 2026-04-29 19:30 | -22.77948 | -43.58216 | 6741 ft | 214 kts | 74° |
| 2026-04-29 19:30 | -22.77580 | -43.56650 | 6405 ft | 214 kts | 75° |
| 2026-04-29 19:30 | -22.77100 | -43.55129 | 6060 ft | 213 kts | 64° |
| 2026-04-29 19:30 | -22.76510 | -43.53655 | 5721 ft | 213 kts | 65° |
| 2026-04-29 19:31 | -22.75927 | -43.52189 | 5381 ft | 212 kts | 65° |
| 2026-04-29 19:31 | -22.75354 | -43.50739 | 5006 ft | 205 kts | 66° |
| 2026-04-29 19:31 | -22.74796 | -43.49329 | 4618 ft | 201 kts | 64° |
| 2026-04-29 19:31 | -22.74251 | -43.47955 | 4225 ft | 197 kts | 65° |
| 2026-04-29 19:32 | -22.73705 | -43.46577 | 3815 ft | 197 kts | 66° |
| 2026-04-29 19:32 | -22.73183 | -43.45257 | 3631 ft | 185 kts | 65° |
| 2026-04-29 19:32 | -22.72695 | -43.44020 | 3514 ft | 171 kts | 65° |
| 2026-04-29 19:32 | -22.72246 | -43.42883 | 3431 ft | 165 kts | 66° |
| 2026-04-29 19:33 | -22.72002 | -43.41665 | 3378 ft | 167 kts | 86° |
| 2026-04-29 19:33 | -22.72148 | -43.40414 | 3251 ft | 169 kts | 105° |
| 2026-04-29 19:33 | -22.72721 | -43.39294 | 2871 ft | 169 kts | 123° |
| 2026-04-29 19:33 | -22.73381 | -43.38254 | 2603 ft | 166 kts | 124° |
| 2026-04-29 19:34 | -22.74046 | -43.37236 | 2355 ft | 165 kts | 124° |
| 2026-04-29 19:34 | -22.74710 | -43.36230 | 2136 ft | 163 kts | 125° |
| 2026-04-29 19:34 | -22.75367 | -43.35238 | 1937 ft | 160 kts | 125° |
| 2026-04-29 19:34 | -22.76013 | -43.34262 | 1720 ft | 158 kts | 125° |
| 2026-04-29 19:35 | -22.76661 | -43.33285 | 1510 ft | 159 kts | 125° |
| 2026-04-29 19:35 | -22.77295 | -43.32330 | 1325 ft | 151 kts | 126° |
| 2026-04-29 19:35 | -22.77893 | -43.31428 | 1124 ft | 146 kts | 126° |
| 2026-04-29 19:35 | -22.78486 | -43.30532 | 932 ft | 145 kts | 126° |
| 2026-04-29 19:36 | -22.79074 | -43.29646 | 766 ft | 144 kts | 126° |
| 2026-04-29 19:36 | -22.79654 | -43.28769 | 597 ft | 140 kts | 126° |
| 2026-04-29 19:36 | -22.80214 | -43.27925 | 411 ft | 136 kts | 127° |
| 2026-04-29 19:36 | -22.80779 | -43.27068 | 282 ft | 138 kts | 125° |
| 2026-04-29 19:37 | -22.81320 | -43.26230 | 44 ft | 136 kts | 124° |
| 2026-04-29 19:37 | -22.81684 | -43.25694 | 23 ft | 121 kts | 126° |
| 2026-04-29 19:37 | -22.82042 | -43.25146 | 28 ft | 16 kts | 103° |
| 2026-04-29 19:37 | -22.82045 | -43.25020 | 23 ft | 18 kts | 89° |
| 2026-04-29 19:38 | -22.82056 | -43.24887 | 23 ft | 9 kts | 111° |